sensor_id;sensor_type;location;lat;lon;timestamp;pressure;altitude;pressure_sealevel;temperature;humidity
33191;BME280;19554;42.652;23.364;2022-08-01T00:02:27;94518.94;;;22.43;43.61
33191;BME280;19554;42.652;23.364;2022-08-01T00:04:56;94500.94;;;22.35;43.58
33191;BME280;19554;42.652;23.364;2022-08-01T00:07:22;94515.06;;;22.44;43.72
33191;BME280;19554;42.652;23.364;2022-08-01T00:09:47;94479.78;;;22.25;43.73
33191;BME280;19554;42.652;23.364;2022-08-01T00:12:13;94475.94;;;22.26;43.82
33191;BME280;19554;42.652;23.364;2022-08-01T00:14:38;94460.13;;;22.09;43.43
33191;BME280;19554;42.652;23.364;2022-08-01T00:17:04;94423.03;;;21.74;43.40
33191;BME280;19554;42.652;23.364;2022-08-01T00:19:29;94482.69;;;22.13;43.28
33191;BME280;19554;42.652;23.364;2022-08-01T00:21:55;94507.09;;;22.32;43.42
33191;BME280;19554;42.652;23.364;2022-08-01T00:24:20;94512.25;;;22.37;42.79
33191;BME280;19554;42.652;23.364;2022-08-01T00:26:46;94515.06;;;22.44;42.76
33191;BME280;19554;42.652;23.364;2022-08-01T00:29:12;94461.56;;;22.03;42.70
33191;BME280;19554;42.652;23.364;2022-08-01T00:31:37;94498.31;;;22.42;42.43
33191;BME280;19554;42.652;23.364;2022-08-01T00:34:03;94488.38;;;22.27;41.98
33191;BME280;19554;42.652;23.364;2022-08-01T00:36:28;94512.28;;;22.41;41.96
33191;BME280;19554;42.652;23.364;2022-08-01T00:38:54;94521.13;;;21.88;45.56
33191;BME280;19554;42.652;23.364;2022-08-01T00:41:19;94526.28;;;21.74;47.07
33191;BME280;19554;42.652;23.364;2022-08-01T00:43:44;94525.63;;;21.38;48.99
33191;BME280;19554;42.652;23.364;2022-08-01T00:46:10;94468.34;;;20.69;50.02
33191;BME280;19554;42.652;23.364;2022-08-01T00:48:35;94416.94;;;20.22;50.82
33191;BME280;19554;42.652;23.364;2022-08-01T00:51:03;94530.03;;;20.72;51.66
33191;BME280;19554;42.652;23.364;2022-08-01T00:53:29;94489.44;;;20.44;51.88
33191;BME280;19554;42.652;23.364;2022-08-01T00:55:55;94491.38;;;20.59;51.58
33191;BME280;19554;42.652;23.364;2022-08-01T00:58:21;94516.69;;;20.83;51.50
33191;BME280;19554;42.652;23.364;2022-08-01T01:00:47;94502.97;;;20.76;51.47
33191;BME280;19554;42.652;23.364;2022-08-01T01:03:12;94498.84;;;20.82;51.32
33191;BME280;19554;42.652;23.364;2022-08-01T01:05:46;94448.84;;;20.64;50.84
33191;BME280;19554;42.652;23.364;2022-08-01T01:08:22;94499.38;;;21.26;50.29
33191;BME280;19554;42.652;23.364;2022-08-01T01:10:56;94502.53;;;21.48;50.05
33191;BME280;19554;42.652;23.364;2022-08-01T01:16:01;94496.56;;;21.62;49.21
33191;BME280;19554;42.652;23.364;2022-08-01T01:18:33;94501.41;;;21.72;49.40
33191;BME280;19554;42.652;23.364;2022-08-01T01:23:44;94428.38;;;21.44;48.80
33191;BME280;19554;42.652;23.364;2022-08-01T01:26:26;94495.75;;;22.04;48.68
33191;BME280;19554;42.652;23.364;2022-08-01T01:29:05;94484.03;;;21.99;48.57
33191;BME280;19554;42.652;23.364;2022-08-01T01:31:39;94495.84;;;22.11;48.53
33191;BME280;19554;42.652;23.364;2022-08-01T01:34:07;94488.91;;;22.13;48.65
33191;BME280;19554;42.652;23.364;2022-08-01T01:36:35;94473.22;;;22.03;48.50
33191;BME280;19554;42.652;23.364;2022-08-01T01:39:00;94476.56;;;22.16;48.66
33191;BME280;19554;42.652;23.364;2022-08-01T01:41:27;94469.53;;;22.15;48.85
33191;BME280;19554;42.652;23.364;2022-08-01T01:43:54;94468.81;;;22.18;48.92
33191;BME280;19554;42.652;23.364;2022-08-01T01:46:22;94452.69;;;22.06;48.56
33191;BME280;19554;42.652;23.364;2022-08-01T01:48:49;94475.09;;;22.22;48.57
33191;BME280;19554;42.652;23.364;2022-08-01T01:51:16;94474.25;;;22.18;48.67
33191;BME280;19554;42.652;23.364;2022-08-01T01:53:43;94468.66;;;22.11;48.80
33191;BME280;19554;42.652;23.364;2022-08-01T01:56:11;94442.72;;;21.90;48.86
33191;BME280;19554;42.652;23.364;2022-08-01T01:58:37;94447.75;;;21.88;48.81
33191;BME280;19554;42.652;23.364;2022-08-01T02:01:05;94468.44;;;21.96;49.01
33191;BME280;19554;42.652;23.364;2022-08-01T02:03:32;94449.59;;;21.84;48.85
33191;BME280;19554;42.652;23.364;2022-08-01T02:06:02;94447.19;;;21.79;48.90
33191;BME280;19554;42.652;23.364;2022-08-01T02:08:29;94460.91;;;21.86;49.39
33191;BME280;19554;42.652;23.364;2022-08-01T02:10:56;94460.53;;;21.88;49.33
33191;BME280;19554;42.652;23.364;2022-08-01T02:13:41;94455.75;;;21.81;49.42
33191;BME280;19554;42.652;23.364;2022-08-01T02:16:08;94397.22;;;21.38;48.92
33191;BME280;19554;42.652;23.364;2022-08-01T02:18:36;94444.97;;;21.62;47.75
33191;BME280;19554;42.652;23.364;2022-08-01T02:21:03;94458.66;;;21.69;47.21
33191;BME280;19554;42.652;23.364;2022-08-01T02:23:34;94457.09;;;21.68;46.60
33191;BME280;19554;42.652;23.364;2022-08-01T02:26:03;94456.25;;;21.64;46.24
33191;BME280;19554;42.652;23.364;2022-08-01T02:28:36;94454.94;;;21.54;47.07
33191;BME280;19554;42.652;23.364;2022-08-01T02:31:06;94454.38;;;21.45;44.63
33191;BME280;19554;42.652;23.364;2022-08-01T02:33:40;94450.56;;;21.30;44.73
33191;BME280;19554;42.652;23.364;2022-08-01T02:36:07;94461.59;;;21.18;46.30
33191;BME280;19554;42.652;23.364;2022-08-01T02:38:40;94432.44;;;20.95;46.77
33191;BME280;19554;42.652;23.364;2022-08-01T02:41:12;94455.44;;;21.21;47.22
33191;BME280;19554;42.652;23.364;2022-08-01T02:43:43;94457.00;;;21.22;47.30
33191;BME280;19554;42.652;23.364;2022-08-01T02:46:16;94457.84;;;21.26;47.16
33191;BME280;19554;42.652;23.364;2022-08-01T02:48:45;94439.03;;;21.14;47.78
33191;BME280;19554;42.652;23.364;2022-08-01T02:51:13;94439.28;;;21.09;48.11
33191;BME280;19554;42.652;23.364;2022-08-01T02:53:42;94404.13;;;20.38;48.71
33191;BME280;19554;42.652;23.364;2022-08-01T02:56:08;94450.19;;;20.54;48.79
33191;BME280;19554;42.652;23.364;2022-08-01T02:58:36;94416.94;;;20.22;49.20
33191;BME280;19554;42.652;23.364;2022-08-01T03:01:04;94447.22;;;20.43;49.78
33191;BME280;19554;42.652;23.364;2022-08-01T03:03:31;94462.19;;;20.37;50.10
33191;BME280;19554;42.652;23.364;2022-08-01T03:05:58;94455.09;;;20.48;50.45
33191;BME280;19554;42.652;23.364;2022-08-01T03:08:25;94453.78;;;20.42;49.41
33191;BME280;19554;42.652;23.364;2022-08-01T03:10:51;94460.91;;;19.99;49.75
33191;BME280;19554;42.652;23.364;2022-08-01T03:13:20;94399.31;;;19.33;50.45
33191;BME280;19554;42.652;23.364;2022-08-01T03:15:47;94459.75;;;19.53;51.26
33191;BME280;19554;42.652;23.364;2022-08-01T03:18:14;94450.94;;;19.56;51.84
33191;BME280;19554;42.652;23.364;2022-08-01T03:20:41;94450.25;;;19.59;52.46
33191;BME280;19554;42.652;23.364;2022-08-01T03:23:10;94463.53;;;19.64;52.19
33191;BME280;19554;42.652;23.364;2022-08-01T03:25:40;94463.03;;;19.74;51.80
33191;BME280;19554;42.652;23.364;2022-08-01T03:28:07;94416.34;;;19.49;51.67
33191;BME280;19554;42.652;23.364;2022-08-01T03:30:34;94410.75;;;19.42;51.92
33191;BME280;19554;42.652;23.364;2022-08-01T03:33:01;94446.50;;;19.63;52.02
33191;BME280;19554;42.652;23.364;2022-08-01T03:35:30;94467.66;;;19.74;52.06
33191;BME280;19554;42.652;23.364;2022-08-01T03:38:00;94472.56;;;19.84;52.03
33191;BME280;19554;42.652;23.364;2022-08-01T03:40:39;94473.06;;;20.05;51.29
33191;BME280;19554;42.652;23.364;2022-08-01T03:43:09;94430.41;;;20.02;50.60
33191;BME280;19554;42.652;23.364;2022-08-01T03:45:39;94469.41;;;20.65;49.59
33191;BME280;19554;42.652;23.364;2022-08-01T03:48:12;94464.81;;;21.04;48.41
33191;BME280;19554;42.652;23.364;2022-08-01T03:50:45;94462.88;;;21.24;47.45
33191;BME280;19554;42.652;23.364;2022-08-01T03:53:13;94463.84;;;21.55;47.08
33191;BME280;19554;42.652;23.364;2022-08-01T03:55:41;94460.06;;;21.82;46.09
33191;BME280;19554;42.652;23.364;2022-08-01T03:58:09;94462.22;;;21.96;45.72
33191;BME280;19554;42.652;23.364;2022-08-01T04:00:36;94467.56;;;22.38;44.98
33191;BME280;19554;42.652;23.364;2022-08-01T04:03:06;94464.84;;;22.65;43.97
33191;BME280;19554;42.652;23.364;2022-08-01T04:05:32;94460.66;;;22.98;43.09
33191;BME280;19554;42.652;23.364;2022-08-01T04:07:58;94471.78;;;23.19;42.37
33191;BME280;19554;42.652;23.364;2022-08-01T04:10:25;94472.00;;;23.37;42.33
33191;BME280;19554;42.652;23.364;2022-08-01T04:12:51;94476.09;;;23.57;41.91
33191;BME280;19554;42.652;23.364;2022-08-01T04:15:18;94466.78;;;23.62;42.33
33191;BME280;19554;42.652;23.364;2022-08-01T04:17:45;94478.13;;;23.64;42.06
33191;BME280;19554;42.652;23.364;2022-08-01T04:20:11;94473.09;;;23.66;42.28
33191;BME280;19554;42.652;23.364;2022-08-01T04:22:37;94464.00;;;23.55;42.28
33191;BME280;19554;42.652;23.364;2022-08-01T04:25:08;94465.53;;;23.49;42.67
33191;BME280;19554;42.652;23.364;2022-08-01T04:27:37;94461.06;;;23.33;42.50
33191;BME280;19554;42.652;23.364;2022-08-01T04:30:05;94476.50;;;23.22;42.52
33191;BME280;19554;42.652;23.364;2022-08-01T04:32:33;94483.03;;;23.17;41.97
33191;BME280;19554;42.652;23.364;2022-08-01T04:35:03;94473.53;;;22.74;42.48
33191;BME280;19554;42.652;23.364;2022-08-01T04:37:30;94470.47;;;22.79;43.36
33191;BME280;19554;42.652;23.364;2022-08-01T04:39:56;94401.47;;;22.34;42.79
33191;BME280;19554;42.652;23.364;2022-08-01T04:42:23;94467.50;;;22.88;43.41
33191;BME280;19554;42.652;23.364;2022-08-01T04:44:48;94464.50;;;22.97;43.99
33191;BME280;19554;42.652;23.364;2022-08-01T04:47:14;94415.41;;;22.89;43.96
33191;BME280;19554;42.652;23.364;2022-08-01T04:49:39;94464.75;;;23.52;43.50
33191;BME280;19554;42.652;23.364;2022-08-01T04:52:05;94471.22;;;23.70;43.36
33191;BME280;19554;42.652;23.364;2022-08-01T04:54:33;94467.88;;;23.87;42.14
33191;BME280;19554;42.652;23.364;2022-08-01T04:56:59;94427.69;;;23.44;42.31
33191;BME280;19554;42.652;23.364;2022-08-01T04:59:36;94398.59;;;23.14;42.05
33191;BME280;19554;42.652;23.364;2022-08-01T05:02:15;94468.72;;;23.58;42.60
33191;BME280;19554;42.652;23.364;2022-08-01T05:04:42;94458.22;;;23.60;42.73
33191;BME280;19554;42.652;23.364;2022-08-01T05:07:08;94461.94;;;23.78;42.39
33191;BME280;19554;42.652;23.364;2022-08-01T05:09:35;94446.13;;;23.95;41.66
33191;BME280;19554;42.652;23.364;2022-08-01T05:12:05;94460.94;;;24.42;38.92
33191;BME280;19554;42.652;23.364;2022-08-01T05:14:31;94461.34;;;24.51;38.37
33191;BME280;19554;42.652;23.364;2022-08-01T05:17:04;94446.78;;;24.91;37.32
33191;BME280;19554;42.652;23.364;2022-08-01T05:19:30;94450.81;;;25.15;37.00
33191;BME280;19554;42.652;23.364;2022-08-01T05:22:02;94454.03;;;25.46;37.11
33191;BME280;19554;42.652;23.364;2022-08-01T05:24:33;94440.84;;;25.87;36.38
33191;BME280;19554;42.652;23.364;2022-08-01T05:26:59;94442.44;;;25.92;35.66
33191;BME280;19554;42.652;23.364;2022-08-01T05:29:25;94450.25;;;26.18;35.37
33191;BME280;19554;42.652;23.364;2022-08-01T05:31:51;94452.59;;;26.31;34.76
33191;BME280;19554;42.652;23.364;2022-08-01T05:34:17;94447.91;;;26.35;34.34
33191;BME280;19554;42.652;23.364;2022-08-01T05:36:43;94448.31;;;26.51;33.94
33191;BME280;19554;42.652;23.364;2022-08-01T05:39:09;94441.63;;;26.59;33.28
33191;BME280;19554;42.652;23.364;2022-08-01T05:41:36;94451.00;;;26.65;33.22
33191;BME280;19554;42.652;23.364;2022-08-01T05:44:03;94399.41;;;26.32;33.94
33191;BME280;19554;42.652;23.364;2022-08-01T05:46:28;94447.09;;;26.66;33.67
33191;BME280;19554;42.652;23.364;2022-08-01T05:48:56;94444.78;;;26.51;33.27
33191;BME280;19554;42.652;23.364;2022-08-01T05:51:21;94444.72;;;26.76;33.63
33191;BME280;19554;42.652;23.364;2022-08-01T05:53:47;94448.22;;;26.80;33.09
33191;BME280;19554;42.652;23.364;2022-08-01T05:56:12;94383.00;;;26.32;32.55
33191;BME280;19554;42.652;23.364;2022-08-01T05:58:38;94458.81;;;26.78;32.34
33191;BME280;19554;42.652;23.364;2022-08-01T06:01:03;94458.84;;;26.56;32.49
33191;BME280;19554;42.652;23.364;2022-08-01T06:03:29;94453.75;;;26.44;32.77
33191;BME280;19554;42.652;23.364;2022-08-01T06:05:56;94465.09;;;26.39;32.43
33191;BME280;19554;42.652;23.364;2022-08-01T06:08:22;94451.81;;;26.34;32.79
33191;BME280;19554;42.652;23.364;2022-08-01T06:10:47;94442.41;;;26.38;32.14
33191;BME280;19554;42.652;23.364;2022-08-01T06:13:13;94450.19;;;26.76;32.37
33191;BME280;19554;42.652;23.364;2022-08-01T06:15:38;94456.84;;;26.82;30.94
33191;BME280;19554;42.652;23.364;2022-08-01T06:18:04;94454.94;;;26.61;31.09
33191;BME280;19554;42.652;23.364;2022-08-01T06:20:30;94469.00;;;26.45;30.58
33191;BME280;19554;42.652;23.364;2022-08-01T06:22:56;94475.66;;;26.44;30.71
33191;BME280;19554;42.652;23.364;2022-08-01T06:25:21;94451.41;;;26.21;30.89
33191;BME280;19554;42.652;23.364;2022-08-01T06:27:47;94446.72;;;26.29;30.58
33191;BME280;19554;42.652;23.364;2022-08-01T06:30:12;94465.88;;;26.39;31.00
33191;BME280;19554;42.652;23.364;2022-08-01T06:32:38;94452.97;;;26.40;30.57
33191;BME280;19554;42.652;23.364;2022-08-01T06:35:04;94457.28;;;26.48;30.94
33191;BME280;19554;42.652;23.364;2022-08-01T06:37:30;94436.94;;;26.38;30.79
33191;BME280;19554;42.652;23.364;2022-08-01T06:40:03;94454.50;;;26.73;31.03
33191;BME280;19554;42.652;23.364;2022-08-01T06:42:29;94442.72;;;26.94;30.78
33191;BME280;19554;42.652;23.364;2022-08-01T06:44:57;94396.28;;;26.51;30.03
33191;BME280;19554;42.652;23.364;2022-08-01T06:47:22;94443.19;;;26.71;30.23
33191;BME280;19554;42.652;23.364;2022-08-01T06:49:48;94457.63;;;26.75;30.54
33191;BME280;19554;42.652;23.364;2022-08-01T06:52:13;94444.34;;;26.74;30.16
33191;BME280;19554;42.652;23.364;2022-08-01T06:54:39;94425.94;;;26.85;30.51
33191;BME280;19554;42.652;23.364;2022-08-01T06:57:05;94395.44;;;26.72;30.41
33191;BME280;19554;42.652;23.364;2022-08-01T06:59:30;94431.38;;;26.92;30.78
33191;BME280;19554;42.652;23.364;2022-08-01T07:01:56;94412.59;;;26.94;30.55
33191;BME280;19554;42.652;23.364;2022-08-01T07:04:21;94425.91;;;26.92;30.31
33191;BME280;19554;42.652;23.364;2022-08-01T07:06:46;94430.22;;;26.89;30.14
33191;BME280;19554;42.652;23.364;2022-08-01T07:09:12;94431.38;;;26.92;30.32
33191;BME280;19554;42.652;23.364;2022-08-01T07:11:37;94374.38;;;26.58;30.86
33191;BME280;19554;42.652;23.364;2022-08-01T07:14:03;94427.03;;;27.05;31.03
33191;BME280;19554;42.652;23.364;2022-08-01T07:16:28;94416.44;;;27.07;31.04
33191;BME280;19554;42.652;23.364;2022-08-01T07:18:54;94427.31;;;27.36;30.53
33191;BME280;19554;42.652;23.364;2022-08-01T07:21:19;94431.13;;;27.53;30.63
33191;BME280;19554;42.652;23.364;2022-08-01T07:23:45;94430.38;;;27.52;30.54
33191;BME280;19554;42.652;23.364;2022-08-01T07:26:10;94436.56;;;27.63;30.62
33191;BME280;19554;42.652;23.364;2022-08-01T07:28:36;94332.63;;;27.24;30.65
33191;BME280;19554;42.652;23.364;2022-08-01T07:31:01;94425.50;;;27.81;30.59
33191;BME280;19554;42.652;23.364;2022-08-01T07:33:27;94391.06;;;27.77;30.37
33191;BME280;19554;42.652;23.364;2022-08-01T07:35:52;94425.94;;;28.25;30.33
33191;BME280;19554;42.652;23.364;2022-08-01T07:38:17;94425.13;;;28.28;29.69
33191;BME280;19554;42.652;23.364;2022-08-01T07:40:44;94419.59;;;28.39;30.16
33191;BME280;19554;42.652;23.364;2022-08-01T07:43:09;94427.84;;;27.83;30.27
33191;BME280;19554;42.652;23.364;2022-08-01T07:45:35;94356.94;;;27.19;30.35
33191;BME280;19554;42.652;23.364;2022-08-01T07:48:05;94441.38;;;27.38;29.78
33191;BME280;19554;42.652;23.364;2022-08-01T07:50:31;94435.97;;;27.24;30.34
33191;BME280;19554;42.652;23.364;2022-08-01T07:52:57;94436.66;;;27.46;30.95
33191;BME280;19554;42.652;23.364;2022-08-01T07:55:22;94382.75;;;27.17;30.45
33191;BME280;19554;42.652;23.364;2022-08-01T07:57:48;94444.41;;;27.58;30.24
33191;BME280;19554;42.652;23.364;2022-08-01T08:00:14;94373.34;;;27.26;29.99
33191;BME280;19554;42.652;23.364;2022-08-01T08:02:40;94441.59;;;27.76;30.07
33191;BME280;19554;42.652;23.364;2022-08-01T08:05:05;94456.97;;;27.55;30.28
33191;BME280;19554;42.652;23.364;2022-08-01T08:07:32;94439.75;;;27.51;30.19
33191;BME280;19554;42.652;23.364;2022-08-01T08:09:58;94376.50;;;27.10;30.36
33191;BME280;19554;42.652;23.364;2022-08-01T08:12:23;94395.34;;;26.97;30.67
33191;BME280;19554;42.652;23.364;2022-08-01T08:14:49;94441.75;;;27.44;30.73
33191;BME280;19554;42.652;23.364;2022-08-01T08:17:14;94445.28;;;27.40;30.57
33191;BME280;19554;42.652;23.364;2022-08-01T08:19:40;94442.94;;;27.43;30.94
33191;BME280;19554;42.652;23.364;2022-08-01T08:22:08;94439.06;;;27.33;30.67
33191;BME280;19554;42.652;23.364;2022-08-01T08:24:35;94443.75;;;27.39;31.14
33191;BME280;19554;42.652;23.364;2022-08-01T08:27:02;94435.38;;;27.64;30.72
33191;BME280;19554;42.652;23.364;2022-08-01T08:29:29;94439.88;;;27.96;29.51
33191;BME280;19554;42.652;23.364;2022-08-01T08:31:58;94441.06;;;27.95;28.69
33191;BME280;19554;42.652;23.364;2022-08-01T08:34:24;94435.31;;;27.72;29.91
33191;BME280;19554;42.652;23.364;2022-08-01T08:36:50;94416.63;;;27.59;29.90
33191;BME280;19554;42.652;23.364;2022-08-01T08:39:16;94429.38;;;27.87;29.93
33191;BME280;19554;42.652;23.364;2022-08-01T08:41:42;94441.19;;;27.74;30.08
33191;BME280;19554;42.652;23.364;2022-08-01T08:44:09;94443.41;;;28.00;30.07
33191;BME280;19554;42.652;23.364;2022-08-01T08:46:42;94443.72;;;28.06;29.48
33191;BME280;19554;42.652;23.364;2022-08-01T08:49:08;94438.88;;;27.65;29.57
33191;BME280;19554;42.652;23.364;2022-08-01T08:51:41;94442.09;;;27.53;29.77
33191;BME280;19554;42.652;23.364;2022-08-01T08:54:07;94442.13;;;27.49;29.81
33191;BME280;19554;42.652;23.364;2022-08-01T08:56:37;94435.09;;;27.45;29.79
33191;BME280;19554;42.652;23.364;2022-08-01T08:59:03;94440.50;;;27.62;29.97
33191;BME280;19554;42.652;23.364;2022-08-01T09:01:31;94437.69;;;27.70;29.70
33191;BME280;19554;42.652;23.364;2022-08-01T09:03:58;94429.53;;;27.62;29.57
33191;BME280;19554;42.652;23.364;2022-08-01T09:06:23;94430.31;;;27.59;29.12
33191;BME280;19554;42.652;23.364;2022-08-01T09:08:49;94423.16;;;27.80;28.86
33191;BME280;19554;42.652;23.364;2022-08-01T09:11:14;94425.09;;;27.79;28.53
33191;BME280;19554;42.652;23.364;2022-08-01T09:13:40;94431.00;;;27.78;29.06
33191;BME280;19554;42.652;23.364;2022-08-01T09:16:05;94377.13;;;27.46;28.91
33191;BME280;19554;42.652;23.364;2022-08-01T09:18:37;94425.47;;;27.85;28.12
33191;BME280;19554;42.652;23.364;2022-08-01T09:26:00;94401.00;;;27.49;28.43
33191;BME280;19554;42.652;23.364;2022-08-01T09:28:29;94416.91;;;27.76;28.81
33191;BME280;19554;42.652;23.364;2022-08-01T09:30:56;94416.28;;;27.47;29.06
33191;BME280;19554;42.652;23.364;2022-08-01T09:33:22;94343.66;;;27.13;27.76
33191;BME280;19554;42.652;23.364;2022-08-01T09:35:55;94424.28;;;27.05;28.71
33191;BME280;19554;42.652;23.364;2022-08-01T09:38:22;94422.31;;;27.09;29.00
33191;BME280;19554;42.652;23.364;2022-08-01T09:40:53;94421.84;;;27.36;29.04
33191;BME280;19554;42.652;23.364;2022-08-01T09:43:20;94419.41;;;27.45;28.52
33191;BME280;19554;42.652;23.364;2022-08-01T09:45:46;94425.81;;;27.21;29.21
33191;BME280;19554;42.652;23.364;2022-08-01T09:48:12;94416.41;;;27.29;28.93
33191;BME280;19554;42.652;23.364;2022-08-01T09:50:46;94409.97;;;27.53;28.95
33191;BME280;19554;42.652;23.364;2022-08-01T09:53:13;94414.97;;;27.69;27.92
33191;BME280;19554;42.652;23.364;2022-08-01T09:55:39;94413.75;;;27.81;28.35
33191;BME280;19554;42.652;23.364;2022-08-01T09:58:06;94400.59;;;27.51;28.93
33191;BME280;19554;42.652;23.364;2022-08-01T10:00:33;94405.97;;;27.65;28.37
33191;BME280;19554;42.652;23.364;2022-08-01T10:02:59;94404.00;;;27.73;29.23
33191;BME280;19554;42.652;23.364;2022-08-01T10:05:32;94410.69;;;27.64;30.44
33191;BME280;19554;42.652;23.364;2022-08-01T10:08:03;94404.13;;;27.48;29.88
33191;BME280;19554;42.652;23.364;2022-08-01T10:10:30;94402.94;;;27.56;29.59
33191;BME280;19554;42.652;23.364;2022-08-01T10:12:58;94392.69;;;27.63;29.30
33191;BME280;19554;42.652;23.364;2022-08-01T10:15:25;94394.72;;;27.52;28.73
33191;BME280;19554;42.652;23.364;2022-08-01T10:17:56;94409.31;;;27.31;29.53
33191;BME280;19554;42.652;23.364;2022-08-01T10:20:25;94392.00;;;27.45;30.05
33191;BME280;19554;42.652;23.364;2022-08-01T10:22:58;94385.25;;;27.60;30.36
33191;BME280;19554;42.652;23.364;2022-08-01T10:25:27;94388.16;;;27.39;29.23
33191;BME280;19554;42.652;23.364;2022-08-01T10:27:54;94383.28;;;26.87;29.16
33191;BME280;19554;42.652;23.364;2022-08-01T10:30:23;94393.16;;;26.63;30.31
33191;BME280;19554;42.652;23.364;2022-08-01T10:32:50;94398.59;;;26.74;30.54
33191;BME280;19554;42.652;23.364;2022-08-01T10:35:18;94390.63;;;27.15;30.66
33191;BME280;19554;42.652;23.364;2022-08-01T10:37:45;94382.63;;;27.43;29.82
33191;BME280;19554;42.652;23.364;2022-08-01T10:40:16;94388.06;;;27.53;30.17
33191;BME280;19554;42.652;23.364;2022-08-01T10:42:43;94384.47;;;27.60;30.08
33191;BME280;19554;42.652;23.364;2022-08-01T10:45:15;94386.44;;;27.63;30.40
33191;BME280;19554;42.652;23.364;2022-08-01T10:47:48;94392.69;;;27.63;30.11
33191;BME280;19554;42.652;23.364;2022-08-01T10:50:32;94393.97;;;27.45;30.65
33191;BME280;19554;42.652;23.364;2022-08-01T10:53:19;94384.16;;;27.47;30.63
33191;BME280;19554;42.652;23.364;2022-08-01T10:55:58;94381.03;;;27.52;29.55
33191;BME280;19554;42.652;23.364;2022-08-01T10:58:38;94385.91;;;27.20;30.11
33191;BME280;19554;42.652;23.364;2022-08-01T11:01:23;94389.91;;;26.86;30.41
33191;BME280;19554;42.652;23.364;2022-08-01T11:07:07;94378.63;;;26.81;31.03
33191;BME280;19554;42.652;23.364;2022-08-01T11:09:39;94365.69;;;26.81;30.76
33191;BME280;19554;42.652;23.364;2022-08-01T11:12:10;94371.19;;;26.78;30.73
33191;BME280;19554;42.652;23.364;2022-08-01T11:17:30;94370.63;;;27.19;30.68
33191;BME280;19554;42.652;23.364;2022-08-01T11:20:11;94363.63;;;27.03;30.81
33191;BME280;19554;42.652;23.364;2022-08-01T11:30:46;94362.06;;;27.02;30.50
33191;BME280;19554;42.652;23.364;2022-08-01T11:33:12;94357.00;;;26.97;31.29
33191;BME280;19554;42.652;23.364;2022-08-01T11:38:40;94362.44;;;27.11;31.03
33191;BME280;19554;42.652;23.364;2022-08-01T11:41:26;94367.13;;;27.18;31.09
33191;BME280;19554;42.652;23.364;2022-08-01T11:44:14;94354.91;;;27.30;31.09
33191;BME280;19554;42.652;23.364;2022-08-01T11:46:55;94360.03;;;27.21;30.90
33191;BME280;19554;42.652;23.364;2022-08-01T11:54:56;94358.94;;;27.00;31.52
33191;BME280;19554;42.652;23.364;2022-08-01T11:57:24;94358.88;;;27.22;31.31
33191;BME280;19554;42.652;23.364;2022-08-01T11:59:52;94364.28;;;27.36;31.09
33191;BME280;19554;42.652;23.364;2022-08-01T12:02:26;94361.91;;;27.38;30.98
33191;BME280;19554;42.652;23.364;2022-08-01T12:04:58;94358.34;;;27.45;30.52
33191;BME280;19554;42.652;23.364;2022-08-01T12:07:25;94356.69;;;27.54;30.39
33191;BME280;19554;42.652;23.364;2022-08-01T12:10:13;94354.00;;;27.47;31.03
33191;BME280;19554;42.652;23.364;2022-08-01T12:12:46;94357.50;;;27.51;31.16
33191;BME280;19554;42.652;23.364;2022-08-01T12:15:13;94355.97;;;27.47;30.80
33191;BME280;19554;42.652;23.364;2022-08-01T12:20:07;94345.13;;;27.32;30.65
33191;BME280;19554;42.652;23.364;2022-08-01T12:22:33;94347.44;;;27.34;31.18
33191;BME280;19554;42.652;23.364;2022-08-01T12:25:10;94339.63;;;27.32;31.58
33191;BME280;19554;42.652;23.364;2022-08-01T12:27:37;94363.53;;;27.25;31.12
33191;BME280;19554;42.652;23.364;2022-08-01T12:30:08;94289.75;;;26.89;31.13
33191;BME280;19554;42.652;23.364;2022-08-01T12:32:36;94361.53;;;27.36;31.02
33191;BME280;19554;42.652;23.364;2022-08-01T12:35:10;94355.63;;;27.37;31.15
33191;BME280;19554;42.652;23.364;2022-08-01T12:37:40;94318.53;;;27.26;30.93
33191;BME280;19554;42.652;23.364;2022-08-01T12:40:13;94361.03;;;27.48;31.02
33191;BME280;19554;42.652;23.364;2022-08-01T12:42:44;94359.94;;;27.35;31.44
33191;BME280;19554;42.652;23.364;2022-08-01T12:45:12;94350.53;;;27.39;31.28
33191;BME280;19554;42.652;23.364;2022-08-01T12:47:39;94345.94;;;27.26;31.02
33191;BME280;19554;42.652;23.364;2022-08-01T12:50:12;94306.09;;;27.03;31.32
33191;BME280;19554;42.652;23.364;2022-08-01T12:52:38;94346.66;;;27.33;31.74
33191;BME280;19554;42.652;23.364;2022-08-01T12:55:24;94343.84;;;27.44;31.36
33191;BME280;19554;42.652;23.364;2022-08-01T12:58:03;94341.06;;;27.51;31.26
33191;BME280;19554;42.652;23.364;2022-08-01T13:00:29;94338.00;;;27.42;30.58
33191;BME280;19554;42.652;23.364;2022-08-01T13:03:10;94345.88;;;27.33;30.69
33191;BME280;19554;42.652;23.364;2022-08-01T13:08:13;94342.06;;;27.20;31.49
33191;BME280;19554;42.652;23.364;2022-08-01T13:10:39;94330.34;;;27.08;30.94
33191;BME280;19554;42.652;23.364;2022-08-01T13:13:05;94332.75;;;26.99;31.72
33191;BME280;19554;42.652;23.364;2022-08-01T13:15:33;94335.44;;;27.13;31.53
33191;BME280;19554;42.652;23.364;2022-08-01T13:18:09;94254.59;;;26.84;31.44
33191;BME280;19554;42.652;23.364;2022-08-01T13:20:46;94337.16;;;27.52;31.87
33191;BME280;19554;42.652;23.364;2022-08-01T13:23:15;94342.53;;;27.67;31.34
33191;BME280;19554;42.652;23.364;2022-08-01T13:25:49;94327.81;;;27.43;31.26
33191;BME280;19554;42.652;23.364;2022-08-01T13:28:23;94330.19;;;27.37;31.62
33191;BME280;19554;42.652;23.364;2022-08-01T13:30:59;94329.31;;;27.51;31.85
33191;BME280;19554;42.652;23.364;2022-08-01T13:33:27;94293.53;;;27.16;31.56
33191;BME280;19554;42.652;23.364;2022-08-01T13:35:54;94311.47;;;27.28;31.72